createdAt,value
2019-02-18T00:00:30.883Z,206.76
2019-02-18T00:01:05.975Z,224.62
2019-02-18T00:01:41.191Z,223.76
2019-02-18T00:02:16.632Z,227.51
2019-02-18T00:02:52.066Z,208.55
2019-02-18T00:03:27.437Z,203.84
2019-02-18T00:04:03.020Z,208.68
2019-02-18T00:04:38.345Z,196.89
2019-02-18T00:05:13.918Z,230.13
2019-02-18T00:05:49.319Z,204.82
2019-02-18T00:06:24.928Z,211.59
2019-02-18T00:07:00.151Z,211.35
2019-02-18T00:07:35.677Z,202.59
2019-02-18T00:08:10.948Z,221.72
2019-02-18T00:08:46.519Z,203.09
2019-02-18T00:09:21.802Z,219.71
2019-02-18T00:09:57.027Z,210.82
2019-02-18T00:10:32.109Z,218.36
2019-02-18T00:11:07.427Z,211.97
2019-02-18T00:11:42.634Z,218.63
2019-02-18T00:12:18.055Z,216.60
2019-02-18T00:12:53.580Z,209.41
2019-02-18T00:13:29.098Z,213.18
2019-02-18T00:14:04.675Z,211.97
2019-02-18T00:14:40.108Z,217.51
2019-02-18T00:15:15.497Z,232.87
2019-02-18T00:15:50.907Z,225.19
2019-02-18T00:16:26.722Z,230.88
2019-02-18T00:17:02.208Z,226.95
2019-02-18T00:17:37.525Z,219.02
2019-02-18T00:18:13.147Z,224.65
2019-02-18T00:18:48.265Z,206.13
2019-02-18T00:19:23.348Z,239.22
2019-02-18T00:19:58.786Z,218.20
2019-02-18T00:20:33.964Z,243.61
2019-02-18T00:21:09.489Z,225.28
2019-02-18T00:21:44.888Z,218.34
2019-02-18T00:22:21.602Z,205.89
2019-02-18T00:22:55.334Z,218.90
2019-02-18T00:23:30.675Z,224.49
2019-02-18T00:24:06.199Z,204.60
2019-02-18T00:24:41.311Z,189.81
2019-02-18T00:25:16.626Z,239.80
2019-02-18T00:25:52.041Z,112.67
2019-02-18T00:26:27.363Z,234.55
2019-02-18T00:27:02.971Z,211.73
2019-02-18T00:27:38.284Z,221.46
2019-02-18T00:28:13.471Z,226.03
2019-02-18T00:28:48.630Z,211.41
2019-02-18T00:29:23.722Z,220.56
2019-02-18T00:29:58.855Z,209.66
2019-02-18T00:30:34.440Z,231.10
2019-02-18T00:31:10.025Z,190.72
2019-02-18T00:31:45.285Z,208.05
2019-02-18T00:32:20.683Z,222.49
2019-02-18T00:32:56.023Z,220.99
2019-02-18T00:33:31.387Z,212.52
2019-02-18T00:34:06.621Z,213.71
2019-02-18T00:34:41.941Z,213.57
2019-02-18T00:35:17.138Z,231.41
2019-02-18T00:35:52.453Z,215.35
2019-02-18T00:36:27.734Z,207.83
2019-02-18T00:37:03.054Z,195.28
2019-02-18T00:37:38.262Z,227.07
2019-02-18T00:38:13.607Z,208.62
2019-02-18T00:38:48.837Z,223.83
2019-02-18T00:39:24.219Z,216.82
2019-02-18T00:39:59.913Z,218.33
2019-02-18T00:40:35.212Z,225.96
2019-02-18T00:41:10.518Z,207.28
2019-02-18T00:41:45.828Z,216.28
2019-02-18T00:42:21.517Z,214.40
2019-02-18T00:42:56.935Z,221.51
2019-02-18T00:43:32.262Z,225.92
2019-02-18T00:44:07.769Z,234.09
2019-02-18T00:44:43.002Z,222.22
2019-02-18T00:45:18.119Z,216.24
2019-02-18T00:45:53.434Z,217.93
2019-02-18T00:46:28.710Z,204.96
2019-02-18T00:47:03.923Z,203.98
2019-02-18T00:47:39.225Z,226.33
2019-02-18T00:48:14.641Z,226.67
2019-02-18T00:48:50.267Z,206.13
2019-02-18T00:49:25.465Z,213.18
2019-02-18T00:50:00.924Z,225.90
2019-02-18T00:50:36.207Z,229.69
2019-02-18T00:51:11.920Z,222.41
2019-02-18T00:51:47.237Z,218.58
2019-02-18T00:52:22.362Z,208.77
2019-02-18T00:52:57.790Z,217.44
2019-02-18T00:53:33.162Z,232.74
2019-02-18T00:54:08.308Z,235.22
2019-02-18T00:54:43.498Z,241.25
2019-02-18T00:55:18.971Z,227.97
2019-02-18T00:55:54.353Z,222.25
2019-02-18T00:56:29.981Z,223.39
2019-02-18T00:57:05.306Z,198.01
2019-02-18T00:57:40.818Z,206.82
2019-02-18T00:58:16.036Z,226.20
2019-02-18T00:58:51.323Z,221.23
2019-02-18T00:59:26.532Z,189.43
2019-02-18T01:00:01.713Z,229.20
2019-02-18T01:00:37.172Z,220.80
2019-02-18T01:01:12.698Z,224.01
2019-02-18T01:01:47.989Z,211.63
2019-02-18T01:02:23.315Z,217.94
2019-02-18T01:02:58.992Z,72.79
2019-02-18T01:03:34.108Z,195.94
2019-02-18T01:04:09.199Z,197.02
2019-02-18T01:04:44.731Z,207.19
2019-02-18T01:05:20.020Z,236.16
2019-02-18T01:05:55.664Z,227.92
2019-02-18T01:06:30.752Z,143.04
2019-02-18T01:07:05.987Z,211.15
2019-02-18T01:07:41.411Z,216.84
2019-02-18T01:08:17.011Z,234.89
2019-02-18T01:08:52.310Z,218.53
2019-02-18T01:09:27.525Z,220.13
2019-02-18T01:10:02.922Z,176.85
2019-02-18T01:10:38.345Z,211.60
2019-02-18T01:11:13.760Z,201.88
2019-02-18T01:11:48.948Z,172.96
2019-02-18T01:12:24.047Z,234.06
2019-02-18T01:12:59.337Z,211.58
2019-02-18T01:13:34.871Z,202.06
2019-02-18T01:14:10.151Z,204.67
2019-02-18T01:14:45.575Z,103.07
2019-02-18T01:15:20.889Z,189.81
2019-02-18T01:15:55.991Z,213.04
2019-02-18T01:16:31.263Z,201.30
2019-02-18T01:17:06.458Z,201.97
2019-02-18T01:17:42.092Z,201.79
2019-02-18T01:18:17.514Z,201.97
2019-02-18T01:18:52.992Z,201.88
2019-02-18T01:19:28.395Z,202.54
2019-02-18T01:20:03.601Z,123.22
2019-02-18T01:20:38.812Z,201.97
2019-02-18T01:21:14.301Z,202.45
2019-02-18T01:21:49.650Z,87.20
2019-02-18T01:22:24.859Z,208.99
2019-02-18T01:23:00.249Z,203.10
2019-02-18T01:23:35.571Z,200.63
2019-02-18T01:24:10.959Z,202.45
2019-02-18T01:24:46.479Z,207.71
2019-02-18T01:25:21.708Z,202.86
2019-02-18T01:25:57.101Z,201.53
2019-02-18T01:26:32.414Z,196.03
2019-02-18T01:27:07.842Z,37.83
2019-02-18T01:27:43.146Z,144.11
2019-02-18T01:28:18.645Z,216.91
2019-02-18T01:28:54.253Z,201.22
2019-02-18T01:29:29.859Z,201.88
2019-02-18T01:30:05.042Z,202.63
2019-02-18T01:30:40.471Z,35.65
2019-02-18T01:31:15.549Z,30.00
2019-02-18T01:31:50.763Z,30.00
2019-02-18T01:32:26.097Z,30.00
2019-02-18T01:33:01.503Z,43.43
2019-02-18T01:33:36.919Z,75.00
2019-02-18T01:34:12.208Z,75.00
2019-02-18T01:34:47.506Z,184.87
2019-02-18T01:35:22.835Z,201.13
2019-02-18T01:35:58.040Z,199.87
2019-02-18T01:36:33.466Z,201.22
2019-02-18T01:37:08.965Z,206.14
2019-02-18T01:37:46.167Z,201.22
2019-02-18T01:38:20.000Z,202.63
2019-02-18T01:38:55.491Z,201.88
2019-02-18T01:39:30.906Z,206.67
2019-02-18T01:40:06.223Z,201.22
2019-02-18T01:40:41.637Z,207.17
2019-02-18T01:41:16.908Z,213.72
2019-02-18T01:41:52.320Z,227.59
2019-02-18T01:42:27.500Z,212.89
2019-02-18T01:43:03.142Z,215.52
2019-02-18T01:43:39.539Z,225.83
2019-02-18T01:44:14.843Z,227.07
2019-02-18T01:44:50.264Z,214.59
2019-02-18T01:45:25.560Z,210.42
2019-02-18T01:46:00.769Z,222.90
2019-02-18T01:46:35.863Z,222.15
2019-02-18T01:47:11.559Z,201.88
2019-02-18T01:47:47.083Z,214.44
2019-02-18T01:48:22.431Z,207.45
2019-02-18T01:48:57.545Z,214.64
2019-02-18T01:49:32.919Z,202.49
2019-02-18T01:50:08.437Z,215.58
2019-02-18T01:50:43.937Z,208.19
2019-02-18T01:51:19.143Z,222.41
2019-02-18T01:51:54.453Z,211.23
2019-02-18T01:52:29.789Z,219.36
2019-02-18T01:53:05.202Z,221.98
2019-02-18T01:53:40.512Z,216.47
2019-02-18T01:54:15.935Z,219.95
2019-02-18T01:54:51.479Z,204.31
2019-02-18T01:55:26.979Z,221.14
2019-02-18T01:56:03.022Z,216.48
2019-02-18T01:56:38.206Z,217.47
2019-02-18T01:57:13.621Z,211.02
2019-02-18T01:57:48.907Z,224.98
2019-02-18T01:58:24.218Z,222.12
2019-02-18T01:58:59.956Z,214.34
2019-02-18T01:59:35.344Z,219.65
2019-02-18T02:00:11.004Z,214.24
2019-02-18T02:00:46.185Z,231.97
2019-02-18T02:01:21.731Z,215.82
2019-02-18T02:01:56.936Z,221.90
2019-02-18T02:02:32.265Z,209.41
2019-02-18T02:03:07.889Z,204.42
2019-02-18T02:03:43.192Z,217.28
2019-02-18T02:04:18.751Z,213.42
2019-02-18T02:04:54.193Z,217.50
2019-02-18T02:05:29.427Z,216.68
2019-02-18T02:06:04.852Z,190.14
2019-02-18T02:06:40.252Z,213.68
2019-02-18T02:07:15.678Z,221.21
2019-02-18T02:07:56.238Z,211.31
2019-02-18T02:08:26.592Z,218.25
2019-02-18T02:09:01.805Z,208.48
2019-02-18T02:09:37.956Z,210.83
2019-02-18T02:10:13.039Z,212.72
2019-02-18T02:10:48.567Z,219.06
2019-02-18T02:11:24.091Z,209.02
2019-02-18T02:11:59.411Z,216.51
2019-02-18T02:12:34.999Z,218.36
2019-02-18T02:13:10.434Z,214.43
2019-02-18T02:13:45.926Z,219.01
2019-02-18T02:14:21.433Z,208.80
2019-02-18T02:14:56.655Z,213.76
2019-02-18T02:15:32.166Z,220.60
2019-02-18T02:16:07.649Z,202.25
2019-02-18T02:16:43.662Z,223.55
2019-02-18T02:17:19.187Z,217.99
2019-02-18T02:17:54.383Z,222.90
2019-02-18T02:18:29.832Z,219.23
2019-02-18T02:19:05.125Z,218.59
2019-02-18T02:19:40.640Z,218.34
2019-02-18T02:20:16.057Z,229.77
2019-02-18T02:20:51.573Z,207.81
2019-02-18T02:21:26.886Z,214.10
2019-02-18T02:22:02.389Z,222.29
2019-02-18T02:22:37.726Z,227.96
2019-02-18T02:23:12.998Z,217.48
2019-02-18T02:23:48.534Z,220.98
2019-02-18T02:24:23.923Z,220.66
2019-02-18T02:24:59.014Z,219.38
2019-02-18T02:25:34.543Z,233.22
2019-02-18T02:26:10.248Z,214.73
2019-02-18T02:26:45.452Z,210.31
2019-02-18T02:27:20.985Z,205.42
2019-02-18T02:27:56.269Z,206.06
2019-02-18T02:28:31.560Z,204.63
2019-02-18T02:29:07.535Z,194.22
2019-02-18T02:29:42.753Z,183.24
2019-02-18T02:30:18.130Z,208.80
2019-02-18T02:30:53.475Z,201.16
2019-02-18T02:31:28.669Z,232.81
2019-02-18T02:32:04.357Z,200.55
2019-02-18T02:32:39.567Z,202.63
2019-02-18T02:33:14.749Z,201.88
2019-02-18T02:33:50.048Z,201.70
2019-02-18T02:34:25.243Z,199.79
2019-02-18T02:35:00.637Z,202.45
2019-02-18T02:35:35.967Z,202.06
2019-02-18T02:36:11.174Z,202.54
2019-02-18T02:36:46.482Z,203.47
2019-02-18T02:37:21.673Z,206.72
2019-02-18T02:38:07.047Z,223.63
2019-02-18T02:38:32.114Z,203.38
2019-02-18T02:39:07.400Z,231.93
2019-02-18T02:39:42.806Z,201.88
2019-02-18T02:40:18.109Z,201.70
2019-02-18T02:40:53.555Z,229.86
2019-02-18T02:41:28.966Z,255.00
2019-02-18T02:42:04.489Z,255.00
2019-02-18T02:42:39.896Z,255.00
2019-02-18T02:43:15.208Z,255.00
2019-02-18T02:43:50.411Z,255.00
2019-02-18T02:44:25.899Z,255.00
2019-02-18T02:45:01.325Z,255.00
2019-02-18T02:45:36.686Z,255.00
2019-02-18T02:46:12.096Z,255.00
2019-02-18T02:46:47.648Z,255.00
2019-02-18T02:47:22.831Z,255.00
2019-02-18T02:47:58.353Z,255.00
2019-02-18T02:48:33.657Z,255.00
2019-02-18T02:49:09.158Z,255.00
2019-02-18T02:49:44.442Z,255.00
2019-02-18T02:50:19.644Z,255.00
2019-02-18T02:50:55.039Z,247.63
2019-02-18T02:51:30.376Z,198.52
2019-02-18T02:52:05.704Z,203.02
2019-02-18T02:52:41.225Z,198.96
2019-02-18T02:53:16.314Z,198.77
2019-02-18T02:53:51.524Z,195.97
2019-02-18T02:54:26.935Z,196.03
2019-02-18T02:55:02.458Z,203.10
2019-02-18T02:55:37.655Z,197.53
2019-02-18T02:56:13.262Z,197.30
2019-02-18T02:56:48.755Z,200.30
2019-02-18T02:57:23.996Z,198.77
2019-02-18T02:57:59.287Z,197.35
2019-02-18T02:58:34.705Z,198.83
2019-02-18T02:59:10.302Z,198.96
2019-02-18T02:59:45.516Z,200.03
2019-02-18T03:00:20.790Z,198.90
2019-02-18T03:00:56.105Z,201.67
2019-02-18T03:01:31.298Z,201.74
2019-02-18T03:02:06.608Z,198.83
2019-02-18T03:02:41.928Z,201.74
2019-02-18T03:03:17.526Z,201.74
2019-02-18T03:03:52.718Z,200.23
2019-02-18T03:04:28.228Z,199.03
2019-02-18T03:05:03.635Z,198.77
2019-02-18T03:05:38.735Z,192.84
2019-02-18T03:06:13.954Z,198.96
2019-02-18T03:06:49.546Z,194.51
2019-02-18T03:07:24.666Z,196.14
2019-02-18T03:07:59.983Z,197.35
2019-02-18T03:08:35.222Z,200.10
2019-02-18T03:09:11.005Z,204.19
2019-02-18T03:09:46.083Z,197.47
2019-02-18T03:10:21.185Z,204.35
2019-02-18T03:10:56.560Z,205.64
2019-02-18T03:11:31.779Z,201.89
2019-02-18T03:12:07.006Z,82.42
2019-02-18T03:12:42.196Z,127.37
2019-02-18T03:13:17.540Z,127.07
2019-02-18T03:13:53.021Z,128.99
2019-02-18T03:14:28.734Z,121.45
2019-02-18T03:15:04.336Z,127.81
2019-02-18T03:15:39.670Z,127.22
2019-02-18T03:16:15.075Z,127.67
2019-02-18T03:16:50.464Z,127.67
2019-02-18T03:17:25.881Z,128.25
2019-02-18T03:18:01.560Z,128.12
2019-02-18T03:18:37.195Z,128.12
2019-02-18T03:19:12.681Z,120.00
2019-02-18T03:19:47.992Z,127.98
2019-02-18T03:20:23.401Z,121.45
2019-02-18T03:20:58.579Z,127.51
2019-02-18T03:21:34.092Z,126.17
2019-02-18T03:22:09.476Z,128.12
2019-02-18T03:22:44.893Z,134.70
2019-02-18T03:23:20.413Z,201.22
2019-02-18T03:23:55.705Z,205.61
2019-02-18T03:24:30.811Z,201.70
2019-02-18T03:25:06.087Z,202.54
2019-02-18T03:25:41.480Z,201.13
2019-02-18T03:26:17.115Z,207.30
2019-02-18T03:26:52.428Z,203.28
2019-02-18T03:27:27.833Z,207.81
2019-02-18T03:28:03.514Z,203.99
2019-02-18T03:28:38.852Z,202.63
2019-02-18T03:29:14.153Z,205.19
2019-02-18T03:29:49.175Z,204.53
2019-02-18T03:30:24.413Z,219.88
2019-02-18T03:30:59.709Z,209.56
2019-02-18T03:31:34.902Z,208.20
2019-02-18T03:32:10.188Z,213.71
2019-02-18T03:32:45.497Z,225.57
2019-02-18T03:33:21.099Z,233.43
2019-02-18T03:33:56.214Z,201.22
2019-02-18T03:34:31.866Z,212.87
2019-02-18T03:35:07.846Z,204.81
2019-02-18T03:35:43.047Z,230.01
2019-02-18T03:36:18.429Z,212.37
2019-02-18T03:36:53.631Z,208.92
2019-02-18T03:37:28.710Z,211.08
2019-02-18T03:38:04.126Z,216.24
2019-02-18T03:38:39.325Z,212.42
2019-02-18T03:39:14.662Z,226.57
2019-02-18T03:39:50.173Z,205.17
2019-02-18T03:40:25.565Z,202.63
2019-02-18T03:41:03.376Z,202.63
2019-02-18T03:41:36.192Z,201.13
2019-02-18T03:42:11.382Z,201.30
2019-02-18T03:42:46.595Z,201.79
2019-02-18T03:43:21.785Z,201.13
2019-02-18T03:43:57.007Z,201.97
2019-02-18T03:44:32.339Z,203.28
2019-02-18T03:45:07.954Z,209.77
2019-02-18T03:45:43.255Z,201.88
2019-02-18T03:46:18.859Z,201.88
2019-02-18T03:46:54.359Z,202.36
2019-02-18T03:47:29.468Z,209.54
2019-02-18T03:48:04.783Z,202.63
2019-02-18T03:48:39.797Z,202.81
2019-02-18T03:49:15.394Z,195.97
2019-02-18T03:49:50.521Z,199.36
2019-02-18T03:50:26.068Z,207.28
2019-02-18T03:51:01.545Z,211.46
2019-02-18T03:51:37.046Z,223.24
2019-02-18T03:52:12.352Z,214.38
2019-02-18T03:52:48.076Z,200.50
2019-02-18T03:53:23.458Z,225.10
2019-02-18T03:53:58.658Z,201.83
2019-02-18T03:54:33.963Z,219.59
2019-02-18T03:55:09.416Z,212.03
2019-02-18T03:55:44.695Z,223.67
2019-02-18T03:56:20.110Z,231.49
2019-02-18T03:56:55.412Z,236.88
2019-02-18T03:57:30.810Z,216.77
2019-02-18T03:58:06.113Z,229.04
2019-02-18T03:58:41.399Z,223.75
2019-02-18T03:59:16.822Z,223.15
2019-02-18T03:59:52.315Z,231.78
2019-02-18T04:00:27.557Z,219.94
2019-02-18T04:01:02.787Z,235.30
2019-02-18T04:01:38.261Z,217.89
2019-02-18T04:02:13.588Z,216.64
2019-02-18T04:02:48.887Z,200.55
2019-02-18T04:03:24.191Z,211.33
2019-02-18T04:03:59.273Z,227.74
2019-02-18T04:04:34.580Z,207.22
2019-02-18T04:05:10.187Z,194.32
2019-02-18T04:05:45.210Z,224.26
2019-02-18T04:06:20.418Z,220.20
2019-02-18T04:06:55.825Z,224.45
2019-02-18T04:07:31.421Z,208.14
2019-02-18T04:08:06.504Z,216.74
2019-02-18T04:08:43.192Z,226.08
2019-02-18T04:09:17.370Z,213.14
2019-02-18T04:09:52.740Z,215.26
2019-02-18T04:10:28.044Z,215.26
2019-02-18T04:11:03.254Z,219.01
2019-02-18T04:11:38.680Z,211.59
2019-02-18T04:12:14.012Z,201.88
2019-02-18T04:12:49.299Z,204.78
2019-02-18T04:13:24.611Z,208.65
2019-02-18T04:14:00.114Z,223.80
2019-02-18T04:14:35.626Z,230.11
2019-02-18T04:15:11.014Z,211.59
2019-02-18T04:15:46.420Z,236.44
2019-02-18T04:16:21.862Z,230.77
2019-02-18T04:16:57.152Z,225.57
2019-02-18T04:17:32.769Z,223.54
2019-02-18T04:18:08.147Z,216.40
2019-02-18T04:18:43.360Z,213.40
2019-02-18T04:19:18.736Z,202.95
2019-02-18T04:19:54.135Z,228.27
2019-02-18T04:20:29.343Z,226.43
2019-02-18T04:21:04.646Z,219.01
2019-02-18T04:21:40.297Z,213.18
2019-02-18T04:22:15.782Z,233.75
2019-02-18T04:22:50.902Z,222.52
2019-02-18T04:23:26.289Z,217.44
2019-02-18T04:24:01.818Z,233.04
2019-02-18T04:24:37.121Z,206.69
2019-02-18T04:25:12.326Z,227.67
2019-02-18T04:25:47.842Z,220.12
2019-02-18T04:26:23.125Z,184.00
2019-02-18T04:26:58.590Z,208.09
2019-02-18T04:27:33.710Z,231.51
2019-02-18T04:28:08.989Z,212.52
2019-02-18T04:28:44.473Z,230.61
2019-02-18T04:29:19.861Z,234.52
2019-02-18T04:29:54.981Z,222.81
2019-02-18T04:30:30.475Z,202.54
2019-02-18T04:31:05.809Z,218.39
2019-02-18T04:31:41.325Z,213.41
2019-02-18T04:32:16.541Z,199.99
2019-02-18T04:32:51.957Z,212.40
2019-02-18T04:33:27.150Z,303.76
2019-02-18T04:34:02.661Z,259.62
2019-02-18T04:34:37.976Z,300.00
2019-02-18T04:35:13.481Z,205.99
2019-02-18T04:35:48.988Z,125.70
2019-02-18T04:36:24.588Z,201.97
2019-02-18T04:36:59.911Z,206.93
2019-02-18T04:37:35.311Z,224.46
2019-02-18T04:38:10.811Z,231.62
2019-02-18T04:38:53.878Z,202.63
2019-02-18T04:39:21.395Z,202.63
2019-02-18T04:39:56.747Z,201.79
2019-02-18T04:40:32.141Z,202.63
2019-02-18T04:41:07.348Z,201.79
2019-02-18T04:41:42.438Z,225.20
2019-02-18T04:42:18.050Z,225.96
2019-02-18T04:42:53.884Z,222.83
2019-02-18T04:43:29.269Z,219.82
2019-02-18T04:44:04.690Z,203.20
2019-02-18T04:44:40.104Z,223.75
2019-02-18T04:45:15.728Z,209.38
2019-02-18T04:45:51.069Z,222.98
2019-02-18T04:46:26.449Z,221.57
2019-02-18T04:47:01.780Z,223.17
2019-02-18T04:47:36.966Z,228.20
2019-02-18T04:48:12.517Z,227.04
2019-02-18T04:48:47.796Z,227.68
2019-02-18T04:49:22.925Z,235.62
2019-02-18T04:49:58.348Z,211.59
2019-02-18T04:50:33.640Z,206.56
2019-02-18T04:51:08.846Z,203.80
2019-02-18T04:51:44.029Z,201.79
2019-02-18T04:52:19.323Z,230.27
2019-02-18T04:52:54.630Z,220.20
2019-02-18T04:53:30.169Z,214.30
2019-02-18T04:54:05.351Z,208.60
2019-02-18T04:54:40.582Z,209.93
2019-02-18T04:55:15.857Z,78.66
2019-02-18T04:55:51.178Z,219.31
2019-02-18T04:56:26.158Z,248.59
2019-02-18T04:57:01.578Z,207.38
2019-02-18T04:57:36.973Z,235.90
2019-02-18T04:58:12.289Z,203.23
2019-02-18T04:58:47.648Z,226.34
2019-02-18T04:59:23.004Z,201.88
2019-02-18T04:59:58.402Z,222.08
2019-02-18T05:00:33.702Z,203.25
2019-02-18T05:01:08.987Z,210.21
2019-02-18T05:01:44.150Z,211.19
2019-02-18T05:02:19.324Z,209.91
2019-02-18T05:02:54.630Z,237.51
2019-02-18T05:03:30.230Z,253.68
2019-02-18T05:04:05.577Z,209.41
2019-02-18T05:04:40.925Z,201.13
2019-02-18T05:05:16.347Z,202.93
2019-02-18T05:05:51.671Z,195.52
2019-02-18T05:06:27.311Z,201.22
2019-02-18T05:07:02.594Z,201.13
2019-02-18T05:07:37.916Z,204.52
2019-02-18T05:08:13.100Z,201.88
2019-02-18T05:08:48.348Z,203.83
2019-02-18T05:09:23.786Z,209.94
2019-02-18T05:09:59.062Z,201.98
2019-02-18T05:10:34.447Z,200.30
2019-02-18T05:11:09.665Z,201.84
2019-02-18T05:11:44.971Z,206.45
2019-02-18T05:12:20.483Z,202.54
2019-02-18T05:12:56.270Z,201.88
2019-02-18T05:13:31.584Z,205.92
2019-02-18T05:14:06.915Z,212.24
2019-02-18T05:14:42.426Z,220.10
2019-02-18T05:15:17.850Z,201.88
2019-02-18T05:15:53.262Z,202.97
2019-02-18T05:16:28.665Z,201.74
2019-02-18T05:17:03.878Z,202.33
2019-02-18T05:17:39.264Z,202.63
2019-02-18T05:18:14.784Z,207.01
2019-02-18T05:18:50.276Z,201.22
2019-02-18T05:19:25.726Z,201.79
2019-02-18T05:20:00.821Z,193.69
2019-02-18T05:20:35.950Z,206.98
2019-02-18T05:21:11.151Z,206.69
2019-02-18T05:21:46.462Z,201.22
2019-02-18T05:22:21.637Z,206.14
2019-02-18T05:22:56.748Z,206.69
2019-02-18T05:23:32.343Z,225.01
2019-02-18T05:24:07.792Z,210.18
2019-02-18T05:24:43.393Z,212.00
2019-02-18T05:25:18.724Z,194.91
2019-02-18T05:25:54.411Z,215.97
2019-02-18T05:26:29.893Z,155.36
2019-02-18T05:27:05.184Z,221.83
2019-02-18T05:27:40.515Z,213.00
2019-02-18T05:28:15.993Z,205.74
2019-02-18T05:28:51.400Z,219.04
2019-02-18T05:29:26.887Z,209.60
2019-02-18T05:30:02.334Z,233.04
2019-02-18T05:30:37.838Z,221.04
2019-02-18T05:31:13.143Z,215.34
2019-02-18T05:31:48.445Z,223.56
2019-02-18T05:32:24.086Z,217.42
2019-02-18T05:32:59.483Z,203.25
2019-02-18T05:33:34.900Z,207.37
2019-02-18T05:34:10.111Z,206.39
2019-02-18T05:34:45.439Z,176.29
2019-02-18T05:35:20.838Z,201.94
2019-02-18T05:35:56.292Z,226.25
2019-02-18T05:36:31.691Z,208.07
2019-02-18T05:37:07.018Z,214.62
2019-02-18T05:37:42.303Z,212.58
2019-02-18T05:38:17.607Z,216.33
2019-02-18T05:38:53.041Z,220.50
2019-02-18T05:39:28.367Z,210.18
2019-02-18T05:40:03.662Z,219.46
2019-02-18T05:40:39.051Z,219.08
2019-02-18T05:41:14.044Z,179.04
2019-02-18T05:41:49.550Z,196.89
2019-02-18T05:42:24.843Z,199.48
2019-02-18T05:43:00.061Z,232.25
2019-02-18T05:43:35.439Z,215.49
2019-02-18T05:44:10.658Z,214.76
2019-02-18T05:44:46.239Z,223.39
2019-02-18T05:45:21.566Z,224.90
2019-02-18T05:45:57.069Z,217.89
2019-02-18T05:46:32.490Z,219.94
2019-02-18T05:47:07.920Z,234.17
2019-02-18T05:47:43.633Z,210.20
2019-02-18T05:48:18.823Z,230.06
2019-02-18T05:48:54.246Z,212.50
2019-02-18T05:49:29.350Z,192.22
2019-02-18T05:50:04.983Z,195.37
2019-02-18T05:50:40.060Z,208.11
2019-02-18T05:51:15.630Z,216.70
2019-02-18T05:51:51.111Z,116.07
2019-02-18T05:52:26.641Z,208.23
2019-02-18T05:53:02.544Z,194.96
2019-02-18T05:53:37.664Z,228.47
2019-02-18T05:54:13.047Z,218.57
2019-02-18T05:54:48.353Z,224.58
2019-02-18T05:55:23.751Z,197.24
2019-02-18T05:55:59.369Z,189.57
2019-02-18T05:56:34.802Z,219.71
2019-02-18T05:57:10.222Z,214.05
2019-02-18T05:57:46.039Z,214.38
2019-02-18T05:58:21.455Z,205.38
2019-02-18T05:58:56.673Z,223.63
2019-02-18T05:59:32.207Z,216.27
2019-02-18T06:00:07.401Z,218.62
2019-02-18T06:00:42.701Z,201.95
2019-02-18T06:01:18.281Z,218.38
2019-02-18T06:01:53.428Z,241.39
2019-02-18T06:02:28.704Z,224.14
2019-02-18T06:03:04.125Z,209.88
2019-02-18T06:03:39.210Z,210.53
2019-02-18T06:04:14.433Z,211.95
2019-02-18T06:04:49.508Z,220.28
2019-02-18T06:05:24.729Z,228.83
2019-02-18T06:05:59.918Z,226.81
2019-02-18T06:06:35.119Z,244.21
2019-02-18T06:07:10.668Z,213.23
2019-02-18T06:07:46.218Z,138.65
2019-02-18T06:08:21.498Z,221.85
2019-02-18T06:08:56.910Z,233.60
2019-02-18T06:09:32.119Z,205.43
2019-02-18T06:10:07.546Z,203.28
2019-02-18T06:10:42.853Z,203.10
2019-02-18T06:11:18.363Z,204.11
2019-02-18T06:11:53.739Z,203.23
2019-02-18T06:12:28.990Z,203.15
2019-02-18T06:13:04.678Z,255.00
2019-02-18T06:13:39.929Z,255.00
2019-02-18T06:14:15.007Z,255.00
2019-02-18T06:14:50.335Z,210.16
2019-02-18T06:15:25.534Z,217.00
2019-02-18T06:16:00.957Z,210.69
2019-02-18T06:16:36.435Z,206.65
2019-02-18T06:17:11.857Z,201.88
2019-02-18T06:17:47.174Z,209.54
2019-02-18T06:18:22.385Z,202.63
2019-02-18T06:18:57.665Z,203.28
2019-02-18T06:19:32.875Z,201.13
2019-02-18T06:20:08.285Z,203.28
2019-02-18T06:20:43.617Z,201.88
2019-02-18T06:21:19.001Z,201.30
2019-02-18T06:21:54.308Z,224.94
2019-02-18T06:22:29.783Z,210.56
2019-02-18T06:23:05.241Z,201.79
2019-02-18T06:23:40.827Z,202.45
2019-02-18T06:24:16.056Z,212.37
2019-02-18T06:24:51.169Z,200.06
2019-02-18T06:25:26.871Z,224.38
2019-02-18T06:26:02.170Z,204.60
2019-02-18T06:26:37.681Z,216.46
2019-02-18T06:27:12.771Z,234.85
2019-02-18T06:27:48.296Z,201.79
2019-02-18T06:28:23.916Z,201.97
2019-02-18T06:28:59.323Z,201.30
2019-02-18T06:29:35.806Z,200.38
2019-02-18T06:30:11.324Z,174.53
2019-02-18T06:30:46.907Z,158.92
2019-02-18T06:31:22.340Z,164.15
2019-02-18T06:31:57.721Z,192.41
2019-02-18T06:32:32.960Z,140.84
2019-02-18T06:33:08.334Z,197.35
2019-02-18T06:33:43.687Z,189.83
2019-02-18T06:34:18.890Z,194.61
2019-02-18T06:34:54.124Z,192.93
2019-02-18T06:35:29.818Z,200.43
2019-02-18T06:36:05.230Z,197.24
2019-02-18T06:36:40.915Z,116.52
2019-02-18T06:37:16.231Z,75.00
2019-02-18T06:37:51.516Z,75.00
2019-02-18T06:38:26.644Z,75.00
2019-02-18T06:39:01.880Z,75.00
2019-02-18T06:39:41.421Z,53.32
2019-02-18T06:40:12.626Z,49.97
2019-02-18T06:40:48.266Z,48.91
2019-02-18T06:41:23.547Z,81.88
2019-02-18T06:41:59.072Z,127.37
2019-02-18T06:42:34.563Z,139.64
2019-02-18T06:43:10.190Z,148.97
2019-02-18T06:43:45.482Z,187.97
2019-02-18T06:44:20.744Z,30.00
2019-02-18T06:44:55.927Z,30.10
2019-02-18T06:45:31.051Z,181.93
2019-02-18T06:46:06.253Z,235.66
2019-02-18T06:46:41.680Z,215.09
2019-02-18T06:47:17.092Z,146.86
2019-02-18T06:47:52.810Z,205.44
2019-02-18T06:48:28.097Z,218.46
2019-02-18T06:49:03.554Z,214.87
2019-02-18T06:49:38.880Z,216.08
2019-02-18T06:50:14.293Z,201.27
2019-02-18T06:50:49.667Z,226.08
2019-02-18T06:51:24.975Z,217.60
2019-02-18T06:52:00.088Z,186.22
2019-02-18T06:52:35.401Z,176.95
2019-02-18T06:53:10.780Z,114.01
2019-02-18T06:53:46.299Z,191.01
2019-02-18T06:54:21.695Z,236.90
2019-02-18T06:54:57.056Z,193.73
2019-02-18T06:55:32.537Z,206.54
2019-02-18T06:56:07.745Z,214.51
2019-02-18T06:56:43.432Z,130.94
2019-02-18T06:57:18.764Z,196.48
2019-02-18T06:57:54.734Z,54.42
2019-02-18T06:58:29.860Z,52.92
2019-02-18T06:59:04.950Z,138.57
2019-02-18T06:59:40.473Z,100.74
2019-02-18T07:00:16.192Z,208.63
2019-02-18T07:00:51.437Z,118.56
2019-02-18T07:01:26.911Z,98.95
2019-02-18T07:02:02.430Z,75.00
2019-02-18T07:02:37.728Z,160.37
2019-02-18T07:03:13.148Z,127.53
2019-02-18T07:03:48.440Z,249.32
2019-02-18T07:04:23.846Z,202.06
2019-02-18T07:04:59.439Z,204.97
2019-02-18T07:05:34.770Z,201.79
2019-02-18T07:06:10.120Z,179.35
2019-02-18T07:06:45.678Z,75.00
2019-02-18T07:07:21.060Z,75.00
2019-02-18T07:07:56.472Z,183.46
2019-02-18T07:08:31.759Z,116.29
2019-02-18T07:09:06.878Z,203.70
2019-02-18T07:09:50.806Z,201.97
2019-02-18T07:10:17.504Z,198.46
2019-02-18T07:10:53.020Z,196.75
2019-02-18T07:11:28.343Z,52.57
2019-02-18T07:12:05.931Z,212.79
2019-02-18T07:12:40.937Z,219.32
2019-02-18T07:13:16.225Z,199.17
2019-02-18T07:13:51.757Z,36.24
2019-02-18T07:14:26.924Z,59.63
2019-02-18T07:15:02.328Z,218.89
2019-02-18T07:15:37.322Z,202.63
2019-02-18T07:16:12.575Z,168.56
2019-02-18T07:16:47.878Z,85.17
2019-02-18T07:17:23.507Z,195.23
2019-02-18T07:17:58.999Z,224.86
2019-02-18T07:18:34.611Z,205.20
2019-02-18T07:19:10.013Z,213.74
2019-02-18T07:19:45.234Z,102.02
2019-02-18T07:20:20.608Z,114.10
2019-02-18T07:20:56.123Z,240.21
2019-02-18T07:21:31.633Z,94.20
2019-02-18T07:22:07.454Z,100.93